createdAt,value
2018-12-24T00:00:21.874Z,97.59
2018-12-24T00:01:21.884Z,97.96
2018-12-24T00:02:21.850Z,97.59
2018-12-24T00:03:21.839Z,97.33
2018-12-24T00:04:21.827Z,97.89
2018-12-24T00:05:21.818Z,97.89
2018-12-24T00:06:21.825Z,97.59
2018-12-24T00:07:21.792Z,97.79
2018-12-24T00:08:21.781Z,97.49
2018-12-24T00:09:21.772Z,97.79
2018-12-24T00:10:21.756Z,97.69
2018-12-24T00:11:21.766Z,97.38
2018-12-24T00:12:21.732Z,97.59
2018-12-24T00:13:21.724Z,98.21
2018-12-24T00:14:21.710Z,98.21
2018-12-24T00:15:21.703Z,97.79
2018-12-24T00:16:21.713Z,98.10
2018-12-24T00:17:21.685Z,97.28
2018-12-24T00:18:21.664Z,97.79
2018-12-24T00:19:21.664Z,97.54
2018-12-24T00:20:21.641Z,97.59
2018-12-24T00:21:21.629Z,97.79
2018-12-24T00:22:21.634Z,97.59
2018-12-24T00:23:21.605Z,98.52
2018-12-24T00:24:21.592Z,97.89
2018-12-24T00:25:21.582Z,97.59
2018-12-24T00:26:21.569Z,97.89
2018-12-24T00:27:21.576Z,97.89
2018-12-24T00:28:21.546Z,97.59
2018-12-24T00:29:21.535Z,97.59
2018-12-24T00:30:21.522Z,98.00
2018-12-24T00:31:21.524Z,97.79
2018-12-24T00:32:21.518Z,97.69
2018-12-24T00:33:21.489Z,98.52
2018-12-24T00:34:21.484Z,97.89
2018-12-24T00:35:21.464Z,97.79
2018-12-24T00:36:21.453Z,97.89
2018-12-24T00:37:21.469Z,98.00
2018-12-24T00:38:21.427Z,97.59
2018-12-24T00:39:21.417Z,97.59
2018-12-24T00:40:21.413Z,97.79
2018-12-24T00:41:21.394Z,97.69
2018-12-24T00:42:21.400Z,97.84
2018-12-24T00:43:21.368Z,97.89
2018-12-24T00:44:21.357Z,97.38
2018-12-24T00:45:21.345Z,98.00
2018-12-24T00:46:21.334Z,97.38
2018-12-24T00:47:21.387Z,98.10
2018-12-24T00:48:21.310Z,97.28
2018-12-24T00:49:21.300Z,97.79
2018-12-24T00:50:21.292Z,97.59
2018-12-24T00:51:21.280Z,98.52
2018-12-24T00:52:21.290Z,97.79
2018-12-24T00:53:21.251Z,97.79
2018-12-24T00:54:21.239Z,97.79
2018-12-24T00:55:21.229Z,98.52
2018-12-24T00:56:21.217Z,98.52
2018-12-24T00:57:21.206Z,98.31
2018-12-24T00:58:21.219Z,98.21
2018-12-24T00:59:21.184Z,98.10
2018-12-24T01:00:21.171Z,97.89
2018-12-24T01:01:21.157Z,98.41
2018-12-24T01:02:21.147Z,98.10
2018-12-24T01:03:21.156Z,97.69
2018-12-24T01:04:21.120Z,97.79
2018-12-24T01:05:21.113Z,97.89
2018-12-24T01:06:21.101Z,97.79
2018-12-24T01:07:21.089Z,98.21
2018-12-24T01:08:21.092Z,97.69
2018-12-24T01:09:21.066Z,97.69
2018-12-24T01:10:21.051Z,97.69
2018-12-24T01:11:21.039Z,98.21
2018-12-24T01:12:24.654Z,97.38
2018-12-24T01:13:21.034Z,97.89
2018-12-24T01:14:21.006Z,97.49
2018-12-24T01:15:20.998Z,98.31
2018-12-24T01:16:20.979Z,98.10
2018-12-24T01:17:20.971Z,98.62
2018-12-24T01:18:20.975Z,97.49
2018-12-24T01:19:20.949Z,97.79
2018-12-24T01:20:20.939Z,97.69
2018-12-24T01:21:20.928Z,97.79
2018-12-24T01:22:20.917Z,97.79
2018-12-24T01:23:20.916Z,97.59
2018-12-24T01:24:20.885Z,97.69
2018-12-24T01:25:20.881Z,98.31
2018-12-24T01:26:20.864Z,97.69
2018-12-24T01:27:20.851Z,97.89
2018-12-24T01:28:20.860Z,98.41
2018-12-24T01:29:20.827Z,97.38
2018-12-24T01:30:20.815Z,97.59
2018-12-24T01:31:20.807Z,98.62
2018-12-24T01:32:20.802Z,98.41
2018-12-24T01:33:20.813Z,98.52
2018-12-24T01:34:20.767Z,98.31
2018-12-24T01:35:20.757Z,98.31
2018-12-24T01:36:20.744Z,98.21
2018-12-24T01:37:20.738Z,98.31
2018-12-24T01:38:20.721Z,98.31
2018-12-24T01:39:20.729Z,98.31
2018-12-24T01:40:20.699Z,98.31
2018-12-24T01:41:20.687Z,98.41
2018-12-24T01:42:20.678Z,98.21
2018-12-24T01:43:20.662Z,98.62
2018-12-24T01:44:20.671Z,98.41
2018-12-24T01:45:20.639Z,98.72
2018-12-24T01:46:20.628Z,98.62
2018-12-24T01:47:20.616Z,98.72
2018-12-24T01:48:20.604Z,98.52
2018-12-24T01:49:20.612Z,98.62
2018-12-24T01:50:20.583Z,98.31
2018-12-24T01:51:20.581Z,98.62
2018-12-24T01:52:20.560Z,98.62
2018-12-24T01:53:20.546Z,99.04
2018-12-24T01:54:20.557Z,99.04
2018-12-24T01:55:20.526Z,99.14
2018-12-24T01:56:20.511Z,99.04
2018-12-24T01:57:20.504Z,98.62
2018-12-24T01:58:20.548Z,99.04
2018-12-24T01:59:20.497Z,99.34
2018-12-24T02:00:20.478Z,99.55
2018-12-24T02:01:20.453Z,99.76
2018-12-24T02:02:20.449Z,99.14
2018-12-24T02:03:20.430Z,99.55
2018-12-24T02:04:20.435Z,99.24
2018-12-24T02:05:20.408Z,99.49
2018-12-24T02:06:20.406Z,99.24
2018-12-24T02:07:20.383Z,99.55
2018-12-24T02:08:20.374Z,99.44
2018-12-24T02:09:20.389Z,99.44
2018-12-24T02:10:20.347Z,98.93
2018-12-24T02:11:20.337Z,99.24
2018-12-24T02:12:20.327Z,99.34
2018-12-24T02:13:20.312Z,99.34
2018-12-24T02:14:20.319Z,99.24
2018-12-24T02:15:20.291Z,99.34
2018-12-24T02:16:20.278Z,99.44
2018-12-24T02:17:20.269Z,99.14
2018-12-24T02:18:20.258Z,99.14
2018-12-24T02:19:20.265Z,99.34
2018-12-24T02:20:20.230Z,99.65
2018-12-24T02:21:20.217Z,99.65
2018-12-24T02:22:20.205Z,99.55
2018-12-24T02:23:20.196Z,99.55
2018-12-24T02:24:20.205Z,99.65
2018-12-24T02:25:20.174Z,99.65
2018-12-24T02:26:20.161Z,99.44
2018-12-24T02:27:20.146Z,99.24
2018-12-24T02:28:20.135Z,99.24
2018-12-24T02:29:20.150Z,98.99
2018-12-24T02:30:20.114Z,98.99
2018-12-24T02:31:20.098Z,98.78
2018-12-24T02:32:20.091Z,98.47
2018-12-24T02:33:20.082Z,98.88
2018-12-24T02:34:20.093Z,98.88
2018-12-24T02:35:20.055Z,98.78
2018-12-24T02:36:20.044Z,98.57
2018-12-24T02:37:20.032Z,98.99
2018-12-24T02:38:20.020Z,98.78
2018-12-24T02:39:20.028Z,98.88
2018-12-24T02:40:19.996Z,99.19
2018-12-24T02:41:19.984Z,98.88
2018-12-24T02:42:20.011Z,98.88
2018-12-24T02:43:19.961Z,98.99
2018-12-24T02:44:19.971Z,99.09
2018-12-24T02:45:19.938Z,99.05
2018-12-24T02:46:19.927Z,99.05
2018-12-24T02:47:19.914Z,98.78
2018-12-24T02:48:19.924Z,98.47
2018-12-24T02:49:19.894Z,98.47
2018-12-24T02:50:19.878Z,98.22
2018-12-24T02:51:19.867Z,98.22
2018-12-24T02:52:19.856Z,98.57
2018-12-24T02:53:19.865Z,98.68
2018-12-24T02:54:19.832Z,98.57
2018-12-24T02:55:19.822Z,98.57
2018-12-24T02:56:19.813Z,98.16
2018-12-24T02:57:19.799Z,98.53
2018-12-24T02:58:19.807Z,98.63
2018-12-24T02:59:19.774Z,98.68
2018-12-24T03:00:19.762Z,98.68
2018-12-24T03:01:19.759Z,98.78
2018-12-24T03:02:19.739Z,98.99
2018-12-24T03:03:19.748Z,98.57
2018-12-24T03:04:19.715Z,98.78
2018-12-24T03:05:19.702Z,98.68
2018-12-24T03:06:19.691Z,98.43
2018-12-24T03:07:19.680Z,98.53
2018-12-24T03:08:19.687Z,98.99
2018-12-24T03:09:19.660Z,98.78
2018-12-24T03:10:19.648Z,98.37
2018-12-24T03:11:19.634Z,98.68
2018-12-24T03:12:19.625Z,98.53
2018-12-24T03:13:19.631Z,98.57
2018-12-24T03:14:19.597Z,98.57
2018-12-24T03:15:19.588Z,98.84
2018-12-24T03:16:19.607Z,98.74
2018-12-24T03:17:19.564Z,98.11
2018-12-24T03:18:19.574Z,98.16
2018-12-24T03:19:19.543Z,98.37
2018-12-24T03:20:19.533Z,98.78
2018-12-24T03:21:19.517Z,98.57
2018-12-24T03:22:19.506Z,98.68
2018-12-24T03:23:19.492Z,98.37
2018-12-24T03:24:19.499Z,98.37
2018-12-24T03:25:19.468Z,98.22
2018-12-24T03:26:19.459Z,98.37
2018-12-24T03:27:19.448Z,98.57
2018-12-24T03:28:19.435Z,98.88
2018-12-24T03:29:19.448Z,98.78
2018-12-24T03:30:19.412Z,98.78
2018-12-24T03:31:19.399Z,98.94
2018-12-24T03:32:19.400Z,98.99
2018-12-24T03:33:19.375Z,98.37
2018-12-24T03:34:19.404Z,98.37
2018-12-24T03:35:19.350Z,98.27
2018-12-24T03:36:19.338Z,98.63
2018-12-24T03:37:19.328Z,98.37
2018-12-24T03:38:19.316Z,98.47
2018-12-24T03:39:19.314Z,98.37
2018-12-24T03:40:19.330Z,98.53
2018-12-24T03:41:19.278Z,98.53
2018-12-24T03:42:19.267Z,98.78
2018-12-24T03:43:19.257Z,98.63
2018-12-24T03:44:19.245Z,98.22
2018-12-24T03:45:19.260Z,98.22
2018-12-24T03:46:19.222Z,98.53
2018-12-24T03:47:19.211Z,98.57
2018-12-24T03:48:19.198Z,98.53
2018-12-24T03:49:19.184Z,98.63
2018-12-24T03:50:19.194Z,98.53
2018-12-24T03:51:19.163Z,98.32
2018-12-24T03:52:19.149Z,98.57
2018-12-24T03:53:19.144Z,98.11
2018-12-24T03:54:19.127Z,98.01
2018-12-24T03:55:19.117Z,98.06
2018-12-24T03:56:19.129Z,98.22
2018-12-24T03:57:19.093Z,98.16
2018-12-24T03:58:19.082Z,98.16
2018-12-24T03:59:19.072Z,98.32
2018-12-24T04:00:19.054Z,97.91
2018-12-24T04:01:19.066Z,97.81
2018-12-24T04:02:19.033Z,97.91
2018-12-24T04:03:19.024Z,98.22
2018-12-24T04:04:19.007Z,98.74
2018-12-24T04:05:18.997Z,98.32
2018-12-24T04:06:19.099Z,98.37
2018-12-24T04:07:18.972Z,98.68
2018-12-24T04:08:18.960Z,98.68
2018-12-24T04:09:18.952Z,98.47
2018-12-24T04:10:18.937Z,98.27
2018-12-24T04:11:18.948Z,98.43
2018-12-24T04:12:18.914Z,98.74
2018-12-24T04:13:22.587Z,98.27
2018-12-24T04:14:18.890Z,97.91
2018-12-24T04:15:18.876Z,98.43
2018-12-24T04:16:18.866Z,98.22
2018-12-24T04:17:18.876Z,98.57
2018-12-24T04:18:18.842Z,98.37
2018-12-24T04:19:18.832Z,98.78
2018-12-24T04:20:18.818Z,98.43
2018-12-24T04:21:18.806Z,98.53
2018-12-24T04:22:18.822Z,98.27
2018-12-24T04:23:18.854Z,98.22
2018-12-24T04:24:18.775Z,98.37
2018-12-24T04:25:18.759Z,98.11
2018-12-24T04:26:18.749Z,98.68
2018-12-24T04:27:18.757Z,98.63
2018-12-24T04:28:18.727Z,98.32
2018-12-24T04:29:18.714Z,98.57
2018-12-24T04:30:18.700Z,98.32
2018-12-24T04:31:18.688Z,98.06
2018-12-24T04:32:18.702Z,98.63
2018-12-24T04:33:18.664Z,98.57
2018-12-24T04:34:18.661Z,98.53
2018-12-24T04:35:18.650Z,98.53
2018-12-24T04:36:18.628Z,98.32
2018-12-24T04:37:18.617Z,98.53
2018-12-24T04:38:18.627Z,98.32
2018-12-24T04:39:18.597Z,98.32
2018-12-24T04:40:18.590Z,98.32
2018-12-24T04:41:18.575Z,98.32
2018-12-24T04:42:18.562Z,98.63
2018-12-24T04:43:18.574Z,98.63
2018-12-24T04:44:18.537Z,98.53
2018-12-24T04:45:18.524Z,98.63
2018-12-24T04:46:18.512Z,98.63
2018-12-24T04:47:18.503Z,98.74
2018-12-24T04:48:18.514Z,98.53
2018-12-24T04:49:18.478Z,98.53
2018-12-24T04:50:18.471Z,98.53
2018-12-24T04:51:18.458Z,98.43
2018-12-24T04:52:18.450Z,98.63
2018-12-24T04:53:18.449Z,98.32
2018-12-24T04:54:18.418Z,98.53
2018-12-24T04:55:18.407Z,98.53
2018-12-24T04:56:18.401Z,98.63
2018-12-24T04:57:18.387Z,98.84
2018-12-24T04:58:18.419Z,98.32
2018-12-24T04:59:18.360Z,98.18
2018-12-24T05:00:18.349Z,98.28
2018-12-24T05:01:18.336Z,98.11
2018-12-24T05:02:18.323Z,98.11
2018-12-24T05:03:18.313Z,98.11
2018-12-24T05:04:18.318Z,98.28
2018-12-24T05:05:18.292Z,98.11
2018-12-24T05:06:18.279Z,98.07
2018-12-24T05:07:18.266Z,98.22
2018-12-24T05:08:18.253Z,98.43
2018-12-24T05:09:18.264Z,98.63
2018-12-24T05:10:18.230Z,98.32
2018-12-24T05:11:18.223Z,98.11
2018-12-24T05:12:18.206Z,98.53
2018-12-24T05:13:18.197Z,98.84
2018-12-24T05:14:18.202Z,99.52
2018-12-24T05:15:18.171Z,99.56
2018-12-24T05:16:18.160Z,99.00
2018-12-24T05:17:18.149Z,99.56
2018-12-24T05:18:18.137Z,99.52
2018-12-24T05:19:18.145Z,98.38
2018-12-24T05:20:18.115Z,98.58
2018-12-24T05:21:18.107Z,98.18
2018-12-24T05:22:18.090Z,98.43
2018-12-24T05:23:18.176Z,98.43
2018-12-24T05:24:18.086Z,98.07
2018-12-24T05:25:18.055Z,98.32
2018-12-24T05:26:18.044Z,97.86
2018-12-24T05:27:18.032Z,98.28
2018-12-24T05:28:18.021Z,98.18
2018-12-24T05:29:18.037Z,98.63
2018-12-24T05:30:18.002Z,97.34
2018-12-24T05:31:17.988Z,97.60
2018-12-24T05:32:17.976Z,97.55
2018-12-24T05:33:17.963Z,97.60
2018-12-24T05:34:17.975Z,98.01
2018-12-24T05:35:17.940Z,98.11
2018-12-24T05:36:17.929Z,98.18
2018-12-24T05:37:17.925Z,97.81
2018-12-24T05:38:17.904Z,98.38
2018-12-24T05:39:17.910Z,97.97
2018-12-24T05:40:17.886Z,98.32
2018-12-24T05:41:17.872Z,97.71
2018-12-24T05:42:17.860Z,97.19
2018-12-24T05:43:17.848Z,97.60
2018-12-24T05:44:17.854Z,97.50
2018-12-24T05:45:17.825Z,97.71
2018-12-24T05:46:17.820Z,97.55
2018-12-24T05:47:17.803Z,97.86
2018-12-24T05:48:17.788Z,97.19
2018-12-24T05:49:17.798Z,97.45
2018-12-24T05:50:17.764Z,98.32
2018-12-24T05:51:17.753Z,97.91
2018-12-24T05:52:17.744Z,98.07
2018-12-24T05:53:17.728Z,97.76
2018-12-24T05:54:17.718Z,97.45
2018-12-24T05:55:17.724Z,97.39
2018-12-24T05:56:17.693Z,97.91
2018-12-24T05:57:17.681Z,97.81
2018-12-24T05:58:17.669Z,96.88
2018-12-24T05:59:17.661Z,96.67
2018-12-24T06:00:17.675Z,97.97
2018-12-24T06:01:17.638Z,97.86
2018-12-24T06:02:17.624Z,97.39
2018-12-24T06:03:17.616Z,96.77
2018-12-24T06:04:17.599Z,97.60
2018-12-24T06:05:17.587Z,97.81
2018-12-24T06:06:17.599Z,97.91
2018-12-24T06:07:17.568Z,97.45
2018-12-24T06:08:17.552Z,97.91
2018-12-24T06:09:17.541Z,97.97
2018-12-24T06:10:17.529Z,97.71
2018-12-24T06:11:17.537Z,97.76
2018-12-24T06:12:17.508Z,97.76
2018-12-24T06:13:17.495Z,97.50
2018-12-24T06:14:17.482Z,97.60
2018-12-24T06:15:17.471Z,97.50
2018-12-24T06:16:17.478Z,97.39
2018-12-24T06:17:17.542Z,97.66
2018-12-24T06:18:17.436Z,96.73
2018-12-24T06:19:17.425Z,96.77
2018-12-24T06:20:17.434Z,96.83
2018-12-24T06:21:17.418Z,96.31
2018-12-24T06:22:17.388Z,96.77
2018-12-24T06:23:17.384Z,96.56
2018-12-24T06:24:17.366Z,96.83
2018-12-24T06:25:17.353Z,96.88
2018-12-24T06:26:17.360Z,96.52
2018-12-24T06:27:17.329Z,96.88
2018-12-24T06:28:17.323Z,96.67
2018-12-24T06:29:17.312Z,96.88
2018-12-24T06:30:17.294Z,96.77
2018-12-24T06:31:17.303Z,96.88
2018-12-24T06:32:17.272Z,96.77
2018-12-24T06:33:17.260Z,97.29
2018-12-24T06:34:17.249Z,97.60
2018-12-24T06:35:17.237Z,97.60
2018-12-24T06:36:17.248Z,97.39
2018-12-24T06:37:17.214Z,96.88
2018-12-24T06:38:17.205Z,96.88
2018-12-24T06:39:17.196Z,97.91
2018-12-24T06:40:17.177Z,97.39
2018-12-24T06:41:17.165Z,97.08
2018-12-24T06:42:18.242Z,97.50
2018-12-24T06:43:17.143Z,97.29
2018-12-24T06:44:17.135Z,96.77
2018-12-24T06:45:17.122Z,97.29
2018-12-24T06:46:17.113Z,97.50
2018-12-24T06:47:17.115Z,97.19
2018-12-24T06:48:17.087Z,97.71
2018-12-24T06:49:17.079Z,97.50
2018-12-24T06:50:17.070Z,97.08
2018-12-24T06:51:17.054Z,97.29
2018-12-24T06:52:17.063Z,97.29
2018-12-24T06:53:17.026Z,96.98
2018-12-24T06:54:17.014Z,97.60
2018-12-24T06:55:17.003Z,96.88
2018-12-24T06:56:16.991Z,97.91
2018-12-24T06:57:16.980Z,97.54
2018-12-24T06:58:16.987Z,97.39
2018-12-24T06:59:16.956Z,97.60
2018-12-24T07:00:16.948Z,97.64
2018-12-24T07:01:16.930Z,97.60
2018-12-24T07:02:16.920Z,97.19
2018-12-24T07:03:16.926Z,97.29
2018-12-24T07:04:16.897Z,96.92
2018-12-24T07:05:16.884Z,96.56
2018-12-24T07:06:16.874Z,96.56
2018-12-24T07:07:16.862Z,96.77
2018-12-24T07:08:16.867Z,96.51
2018-12-24T07:09:16.837Z,96.15
2018-12-24T07:10:16.825Z,96.56
2018-12-24T07:11:16.813Z,96.26
2018-12-24T07:12:16.801Z,96.67
2018-12-24T07:13:16.809Z,95.89
2018-12-24T07:14:16.787Z,95.43
2018-12-24T07:15:16.771Z,95.48
2018-12-24T07:16:16.756Z,94.75
2018-12-24T07:17:16.749Z,94.19
2018-12-24T07:18:16.751Z,93.41
2018-12-24T07:19:16.719Z,92.58
2018-12-24T07:20:16.707Z,93.20
2018-12-24T07:21:16.696Z,93.72
2018-12-24T07:22:16.685Z,93.05
2018-12-24T07:23:16.695Z,92.85
2018-12-24T07:24:16.660Z,93.20
2018-12-24T07:25:16.651Z,93.47
2018-12-24T07:26:16.636Z,93.05
2018-12-24T07:27:16.625Z,92.64
2018-12-24T07:28:16.615Z,91.96
2018-12-24T07:29:16.623Z,91.86
2018-12-24T07:30:16.591Z,91.86
2018-12-24T07:31:17.874Z,92.68
2018-12-24T07:32:16.567Z,92.17
2018-12-24T07:33:16.554Z,92.17
2018-12-24T07:34:16.586Z,92.58
2018-12-24T07:35:16.533Z,91.86
2018-12-24T07:36:16.517Z,91.65
2018-12-24T07:37:16.507Z,90.31
2018-12-24T07:38:16.496Z,91.34
2018-12-24T07:39:16.483Z,90.31
2018-12-24T07:40:16.493Z,91.44
2018-12-24T07:41:16.461Z,91.55
2018-12-24T07:42:16.453Z,91.86
2018-12-24T07:43:16.440Z,91.24
2018-12-24T07:44:23.920Z,91.55
2018-12-24T07:45:17.433Z,90.35
2018-12-24T07:46:16.403Z,89.59
2018-12-24T07:47:16.390Z,88.49
2018-12-24T07:48:16.380Z,88.80
2018-12-24T07:49:16.370Z,89.01
2018-12-24T07:50:16.378Z,89.01
2018-12-24T07:51:16.349Z,88.18
2018-12-24T07:52:16.336Z,88.80
2018-12-24T07:53:16.323Z,88.59
2018-12-24T07:54:16.311Z,88.70
2018-12-24T07:55:16.326Z,88.49
2018-12-24T07:56:16.290Z,89.52
2018-12-24T07:57:16.282Z,89.83
2018-12-24T07:58:16.266Z,90.45
2018-12-24T07:59:16.255Z,89.94
2018-12-24T08:00:16.244Z,90.25
2018-12-24T08:01:16.251Z,90.04
2018-12-24T08:02:16.218Z,90.45
2018-12-24T08:03:16.209Z,90.14
2018-12-24T08:04:16.195Z,90.14
2018-12-24T08:05:16.184Z,88.80
2018-12-24T08:06:16.215Z,88.18
2018-12-24T08:07:16.162Z,87.18
2018-12-24T08:08:16.153Z,86.32
2018-12-24T08:09:16.143Z,86.21
2018-12-24T08:10:16.129Z,85.32
2018-12-24T08:11:16.137Z,85.22
2018-12-24T08:12:16.105Z,85.02
2018-12-24T08:13:16.093Z,85.74
2018-12-24T08:14:16.087Z,85.42
2018-12-24T08:15:16.070Z,86.05
2018-12-24T08:16:16.084Z,85.68
2018-12-24T08:17:16.049Z,86.05
2018-12-24T08:18:16.036Z,85.57
2018-12-24T08:19:16.027Z,85.42
2018-12-24T08:20:16.012Z,85.57
2018-12-24T08:21:16.002Z,85.99
2018-12-24T08:22:16.007Z,86.60
2018-12-24T08:23:15.977Z,87.54
2018-12-24T08:24:15.966Z,86.50
2018-12-24T08:25:15.956Z,86.19
2018-12-24T08:26:15.943Z,85.47
2018-12-24T08:27:15.952Z,86.40
2018-12-24T08:28:15.920Z,85.78
2018-12-24T08:29:15.914Z,84.74
2018-12-24T08:30:15.900Z,84.74
2018-12-24T08:31:15.891Z,85.26
2018-12-24T08:32:15.902Z,85.40
2018-12-24T08:33:15.867Z,85.92
2018-12-24T08:34:15.854Z,85.19
2018-12-24T08:35:15.847Z,84.78
2018-12-24T08:36:15.834Z,83.95
2018-12-24T08:37:15.821Z,84.78
2018-12-24T08:38:15.882Z,85.30
2018-12-24T08:39:15.799Z,85.19
2018-12-24T08:40:15.788Z,85.30
2018-12-24T08:41:15.776Z,85.61
2018-12-24T08:42:15.764Z,85.30
2018-12-24T08:43:15.775Z,85.40
2018-12-24T08:44:15.742Z,85.50
2018-12-24T08:45:15.730Z,86.29
2018-12-24T08:46:15.721Z,86.09
2018-12-24T08:47:15.710Z,85.78
2018-12-24T08:48:15.718Z,86.02
2018-12-24T08:49:15.692Z,85.50
2018-12-24T08:50:15.679Z,85.16
2018-12-24T08:51:15.665Z,85.05
2018-12-24T08:52:15.653Z,85.26
2018-12-24T08:53:15.662Z,86.29
2018-12-24T08:54:15.634Z,86.40
2018-12-24T08:55:15.622Z,86.09
2018-12-24T08:56:15.610Z,85.68
2018-12-24T08:57:15.597Z,86.91
2018-12-24T08:58:15.606Z,87.64
2018-12-24T08:59:15.576Z,87.43
2018-12-24T09:00:15.564Z,85.78
2018-12-24T09:01:15.552Z,85.57
2018-12-24T09:02:15.540Z,85.88
2018-12-24T09:03:15.570Z,86.29
2018-12-24T09:04:15.520Z,85.68
2018-12-24T09:05:15.504Z,86.19
2018-12-24T09:06:15.494Z,85.74
2018-12-24T09:07:15.487Z,85.32
2018-12-24T09:08:15.470Z,85.91
2018-12-24T09:09:15.482Z,84.66
2018-12-24T09:10:15.447Z,84.77
2018-12-24T09:11:15.442Z,84.31
2018-12-24T09:12:15.428Z,83.39
2018-12-24T09:13:15.412Z,83.59
2018-12-24T09:14:15.402Z,84.42
2018-12-24T09:15:15.408Z,84.66
2018-12-24T09:16:15.377Z,84.36
2018-12-24T09:17:15.370Z,85.02
2018-12-24T09:18:15.355Z,85.74
2018-12-24T09:19:15.345Z,86.09
2018-12-24T09:20:15.351Z,86.09
2018-12-24T09:21:15.321Z,85.64
2018-12-24T09:22:15.312Z,77.72
2018-12-24T09:23:15.299Z,71.62
2018-12-24T09:24:15.346Z,69.13
2018-12-24T09:25:15.297Z,65.87
2018-12-24T09:26:15.268Z,64.42
2018-12-24T09:27:15.253Z,62.11
2018-12-24T09:28:15.242Z,59.10
2018-12-24T09:29:15.229Z,57.95
2018-12-24T09:30:15.222Z,57.69
2018-12-24T09:31:15.225Z,57.26
2018-12-24T09:32:15.197Z,55.86
2018-12-24T09:33:15.187Z,56.42
2018-12-24T09:34:15.189Z,56.96
2018-12-24T09:35:15.163Z,57.67
2018-12-24T09:36:15.169Z,57.32
2018-12-24T09:37:15.139Z,58.67
2018-12-24T09:38:15.129Z,59.85
2018-12-24T09:39:15.118Z,60.01
2018-12-24T09:40:15.106Z,60.58
2018-12-24T09:41:15.110Z,61.16
2018-12-24T09:42:15.080Z,60.67
2018-12-24T09:43:15.070Z,57.55
2018-12-24T09:44:15.060Z,56.40
2018-12-24T09:45:15.050Z,55.84
2018-12-24T09:46:15.053Z,55.38
2018-12-24T09:47:15.022Z,52.78
2018-12-24T09:48:15.023Z,52.15
2018-12-24T09:49:15.000Z,51.42
2018-12-24T09:50:14.987Z,52.20
2018-12-24T09:51:15.026Z,50.65
2018-12-24T09:52:15.049Z,51.44
2018-12-24T09:53:14.959Z,49.69
2018-12-24T09:54:14.940Z,49.11
2018-12-24T09:55:14.980Z,48.34
2018-12-24T09:56:14.921Z,49.16
2018-12-24T09:57:14.933Z,47.18
2018-12-24T09:58:14.895Z,47.81
2018-12-24T09:59:14.884Z,48.11
2018-12-24T10:00:14.873Z,47.74
2018-12-24T10:01:14.899Z,48.52
2018-12-24T10:02:16.426Z,46.88
2018-12-24T10:03:14.836Z,47.38
2018-12-24T10:04:14.824Z,47.30
2018-12-24T10:05:14.816Z,48.34
2018-12-24T10:06:14.803Z,46.47
2018-12-24T10:07:14.813Z,46.35
2018-12-24T10:08:14.822Z,45.92
2018-12-24T10:09:14.765Z,46.25
2018-12-24T10:10:14.753Z,46.12
2018-12-24T10:11:14.743Z,45.50
2018-12-24T10:12:14.733Z,44.50
2018-12-24T10:13:14.740Z,46.67
2018-12-24T10:14:14.708Z,47.16
2018-12-24T10:15:14.696Z,45.51
2018-12-24T10:16:14.685Z,46.43
2018-12-24T10:17:14.674Z,45.90
2018-12-24T10:18:14.684Z,46.43
2018-12-24T10:19:14.654Z,45.59
2018-12-24T10:20:14.638Z,45.35
2018-12-24T10:21:14.682Z,44.90
2018-12-24T10:22:14.617Z,43.67
2018-12-24T10:23:14.629Z,43.16
2018-12-24T10:24:14.593Z,43.85
2018-12-24T10:25:14.583Z,43.77
2018-12-24T10:26:14.572Z,46.46
2018-12-24T10:27:14.559Z,43.63
2018-12-24T10:28:14.548Z,43.41
2018-12-24T10:29:14.557Z,45.00
2018-12-24T10:30:14.525Z,43.06
2018-12-24T10:31:14.513Z,43.95
2018-12-24T10:32:14.501Z,42.61
2018-12-24T10:33:14.494Z,43.63
2018-12-24T10:34:14.500Z,41.93
2018-12-24T10:35:14.468Z,41.99
2018-12-24T10:36:14.457Z,43.32
2018-12-24T10:37:14.445Z,42.31
2018-12-24T10:38:14.434Z,43.10
2018-12-24T10:39:14.440Z,43.08
2018-12-24T10:40:14.408Z,42.68
2018-12-24T10:41:14.396Z,42.92
2018-12-24T10:42:14.384Z,43.71
2018-12-24T10:43:14.375Z,42.49
2018-12-24T10:44:14.401Z,42.25
2018-12-24T10:45:16.711Z,42.46
2018-12-24T10:46:14.340Z,42.25
2018-12-24T10:47:14.330Z,42.37
2018-12-24T10:48:14.314Z,42.86
2018-12-24T10:49:14.301Z,43.49
2018-12-24T10:50:14.308Z,45.23
2018-12-24T10:51:14.279Z,43.29
2018-12-24T10:52:14.268Z,43.77
2018-12-24T10:53:14.255Z,43.51
2018-12-24T10:54:14.246Z,43.91
2018-12-24T10:55:14.273Z,43.41
2018-12-24T10:56:14.223Z,44.09
2018-12-24T10:57:14.211Z,43.06
2018-12-24T10:58:14.204Z,43.77
2018-12-24T10:59:14.187Z,42.98
2018-12-24T11:00:14.178Z,43.73
2018-12-24T11:01:14.180Z,45.39
2018-12-24T11:02:14.151Z,45.59
2018-12-24T11:03:14.141Z,46.38
2018-12-24T11:04:14.128Z,44.58
2018-12-24T11:05:14.117Z,47.10
2018-12-24T11:06:14.122Z,49.10
2018-12-24T11:07:14.094Z,49.69
2018-12-24T11:08:14.085Z,47.46
2018-12-24T11:09:14.075Z,46.65
2018-12-24T11:10:14.061Z,46.35
2018-12-24T11:11:14.065Z,47.05
2018-12-24T11:12:14.036Z,50.44
2018-12-24T11:13:14.024Z,53.67
2018-12-24T11:14:14.012Z,55.87
2018-12-24T11:15:13.999Z,56.87
2018-12-24T11:16:14.012Z,58.29
2018-12-24T11:17:13.976Z,58.15
2018-12-24T11:18:13.969Z,58.76
2018-12-24T11:19:13.981Z,61.18
2018-12-24T11:20:13.942Z,61.71
2018-12-24T11:21:13.948Z,61.95
2018-12-24T11:22:13.919Z,61.85
2018-12-24T11:23:13.908Z,62.66
2018-12-24T11:24:13.895Z,61.38
2018-12-24T11:25:13.884Z,58.01
2018-12-24T11:26:13.895Z,58.48
2018-12-24T11:27:13.860Z,58.02
2018-12-24T11:28:13.848Z,60.10
2018-12-24T11:29:13.840Z,60.53
2018-12-24T11:30:13.826Z,60.49
2018-12-24T11:31:13.816Z,60.89
2018-12-24T11:32:13.825Z,60.97
2018-12-24T11:33:13.791Z,58.72
2018-12-24T11:34:13.782Z,61.74
2018-12-24T11:35:13.767Z,60.67
2018-12-24T11:36:13.755Z,63.47
2018-12-24T11:37:13.809Z,63.34
2018-12-24T11:38:13.732Z,63.54
2018-12-24T11:39:13.722Z,63.34
2018-12-24T11:40:13.711Z,62.75
2018-12-24T11:41:13.698Z,62.99
2018-12-24T11:42:13.686Z,62.81
2018-12-24T11:43:13.692Z,64.04
2018-12-24T11:44:13.663Z,63.84
2018-12-24T11:45:13.652Z,62.16
2018-12-24T11:46:13.642Z,63.22
2018-12-24T11:47:13.630Z,64.66
2018-12-24T11:48:13.634Z,64.66
2018-12-24T11:49:13.608Z,63.75
2018-12-24T11:50:13.596Z,60.19
2018-12-24T11:51:13.583Z,59.30
2018-12-24T11:52:13.581Z,59.56
2018-12-24T11:53:13.577Z,62.39
2018-12-24T11:54:13.548Z,63.54
2018-12-24T11:55:13.537Z,62.04
2018-12-24T11:56:13.525Z,62.83
2018-12-24T11:57:13.514Z,62.26
2018-12-24T11:58:13.618Z,62.26
2018-12-24T11:59:13.492Z,61.16
2018-12-24T12:00:13.480Z,63.68
2018-12-24T12:01:13.474Z,64.29
2018-12-24T12:02:13.460Z,65.05
2018-12-24T12:03:13.468Z,64.97
2018-12-24T12:04:13.435Z,64.87
2018-12-24T12:05:13.426Z,64.59
2018-12-24T12:06:19.611Z,66.31
2018-12-24T12:07:14.403Z,66.31
2018-12-24T12:08:13.389Z,65.41
2018-12-24T12:09:13.396Z,66.10
2018-12-24T12:10:13.370Z,62.36
2018-12-24T12:11:13.359Z,62.40
2018-12-24T12:12:13.345Z,57.84
2018-12-24T12:13:13.332Z,55.66
2018-12-24T12:14:13.338Z,52.12
2018-12-24T12:15:13.309Z,52.20
2018-12-24T12:16:13.302Z,49.81
2018-12-24T12:17:13.286Z,49.61
2018-12-24T12:18:13.274Z,49.61
2018-12-24T12:19:13.279Z,52.12
2018-12-24T12:20:13.254Z,52.30
2018-12-24T12:21:13.241Z,50.50
2018-12-24T12:22:13.232Z,50.45
2018-12-24T12:23:13.224Z,49.36
2018-12-24T12:24:13.224Z,51.81
2018-12-24T12:25:13.193Z,55.56
2018-12-24T12:26:13.183Z,57.66
2018-12-24T12:27:13.171Z,55.07
2018-12-24T12:28:13.158Z,52.76
2018-12-24T12:29:13.165Z,52.70
2018-12-24T12:30:13.135Z,53.98
2018-12-24T12:31:13.127Z,57.25
2018-12-24T12:32:13.114Z,58.15
2018-12-24T12:33:13.102Z,58.02
2018-12-24T12:34:13.109Z,56.17
2018-12-24T12:35:13.078Z,54.36
2018-12-24T12:36:13.066Z,53.83
2018-12-24T12:37:13.060Z,56.59
2018-12-24T12:38:13.044Z,58.81
2018-12-24T12:39:13.052Z,55.99
2018-12-24T12:40:13.021Z,52.32
2018-12-24T12:41:13.011Z,52.15
2018-12-24T12:42:13.000Z,50.06
2018-12-24T12:43:12.988Z,50.26
2018-12-24T12:44:12.998Z,49.73
2018-12-24T12:45:12.969Z,48.80
2018-12-24T12:46:12.953Z,49.20
2018-12-24T12:47:12.942Z,48.19
2018-12-24T12:48:12.930Z,52.29
2018-12-24T12:49:12.938Z,55.89
2018-12-24T12:50:12.908Z,57.51
2018-12-24T12:51:12.896Z,58.64
2018-12-24T12:52:12.886Z,61.02